Time;durP1;ratioP1;P1;durP2;ratioP2;P2;SDS_P1;SDS_P2;PMS_P1;PMS_P2;Temp;Humidity;BMP_temperature;BMP_pressure;BME280_temperature;BME280_humidity;BME280_pressure;Samples;Min_cycle;Max_cycle;Signal;HPM_P1;HPM_P2
2022/04/26 03:36:54;;;;;;;39.00;23.87;;;11.30;99.90;;;;;;5067788;28;20508;-49
2022/04/26 03:39:20;;;;;;;38.30;23.17;;;11.30;99.90;;;;;;5051746;28;20954;-49
2022/04/26 03:41:45;;;;;;;41.10;23.10;;;11.30;99.90;;;;;;5037858;28;20906;-49
2022/04/26 03:44:11;;;;;;;41.10;23.60;;;11.30;99.90;;;;;;5051874;28;20404;-49
2022/04/26 03:46:37;;;;;;;40.70;23.43;;;11.20;99.90;;;;;;5051695;28;20863;-49
2022/04/26 03:49:02;;;;;;;41.45;24.05;;;11.10;99.90;;;;;;5059947;28;21205;-49
2022/04/26 03:51:28;;;;;;;40.53;23.60;;;11.10;99.90;;;;;;5051930;28;20781;-49
2022/04/26 03:53:54;;;;;;;38.78;23.05;;;11.00;99.90;;;;;;5068182;28;20387;-49
2022/04/26 03:56:20;;;;;;;41.45;23.45;;;11.10;99.90;;;;;;5071028;28;20415;-49
2022/04/26 03:58:46;;;;;;;39.80;23.30;;;11.20;99.90;;;;;;5070106;28;20446;-49
2022/04/26 04:01:11;;;;;;;40.63;23.08;;;11.20;99.90;;;;;;5070286;28;20376;-50
2022/04/26 04:03:38;;;;;;;40.10;23.83;;;11.20;99.90;;;;;;5051713;28;20393;-49
2022/04/26 04:06:04;;;;;;;40.85;23.30;;;11.20;99.90;;;;;;5036008;28;20974;-49
2022/04/26 04:08:30;;;;;;;40.90;24.15;;;11.30;99.90;;;;;;5071385;28;20427;-49
2022/04/26 04:10:56;;;;;;;45.10;25.90;;;11.20;99.90;;;;;;5068947;28;20413;-49
2022/04/26 04:13:21;;;;;;;43.83;24.50;;;11.20;99.90;;;;;;5053685;28;20408;-49
2022/04/26 04:15:47;;;;;;;43.33;24.93;;;11.30;99.90;;;;;;5067728;28;20395;-49
2022/04/26 04:20:57;;;;;;;41.03;23.67;;;11.40;99.90;;;;;;5070825;28;20497;-50
2022/04/26 04:23:23;;;;;;;39.07;22.40;;;11.30;99.90;;;;;;5068959;28;20561;-49
2022/04/26 04:25:49;;;;;;;37.95;22.30;;;11.30;99.90;;;;;;5052579;28;20857;-49
2022/04/26 04:28:15;;;;;;;35.93;22.40;;;11.20;99.90;;;;;;5068788;28;20388;-49
2022/04/26 04:30:41;;;;;;;33.33;21.10;;;11.30;99.90;;;;;;5060336;28;20404;-52
2022/04/26 04:33:07;;;;;;;34.00;21.07;;;11.40;99.90;;;;;;5051587;28;20386;-49
2022/04/26 04:35:33;;;;;;;32.33;20.20;;;11.40;99.90;;;;;;5070373;28;20928;-49
2022/04/26 04:37:58;;;;;;;35.78;20.95;;;11.20;99.90;;;;;;5069535;28;20383;-49
2022/04/26 04:40:24;;;;;;;43.17;23.80;;;11.30;99.90;;;;;;5070781;28;20415;-49
2022/04/26 04:42:50;;;;;;;40.28;23.63;;;11.30;99.90;;;;;;5054982;28;20424;-49
2022/04/26 04:45:16;;;;;;;47.40;25.70;;;11.20;99.90;;;;;;5056643;28;20873;-49
2022/04/26 04:47:41;;;;;;;46.53;25.63;;;11.20;99.90;;;;;;5069999;28;20412;-51
2022/04/26 04:50:07;;;;;;;52.40;26.60;;;11.10;99.90;;;;;;5070144;28;20785;-49
2022/04/26 04:52:33;;;;;;;50.55;26.27;;;11.10;99.90;;;;;;5056156;28;20393;-49
2022/04/26 04:54:59;;;;;;;50.40;26.75;;;11.10;99.90;;;;;;5049869;28;21263;-49
2022/04/26 04:57:25;;;;;;;47.58;27.27;;;11.10;99.90;;;;;;5051252;28;20474;-49
2022/04/26 04:59:50;;;;;;;54.10;27.83;;;11.20;99.90;;;;;;5031772;28;20417;-49
2022/04/26 05:02:16;;;;;;;51.10;27.63;;;11.20;99.90;;;;;;5032549;28;20747;-49
2022/04/26 05:04:47;;;;;;;55.22;28.20;;;11.20;99.90;;;;;;5049745;28;20442;-51
2022/04/26 05:07:12;;;;;;;50.03;26.73;;;11.30;99.90;;;;;;5061109;28;20395;-49
2022/04/26 05:09:38;;;;;;;48.08;27.33;;;11.20;99.90;;;;;;5069828;28;20405;-49
2022/04/26 05:12:05;;;;;;;51.57;27.97;;;11.20;99.90;;;;;;5067207;28;20396;-49
2022/04/26 05:14:32;;;;;;;49.20;28.05;;;11.40;99.90;;;;;;5043246;28;20480;-49
2022/04/26 05:16:57;;;;;;;49.10;27.73;;;11.40;99.90;;;;;;5049398;28;20378;-49
2022/04/26 05:19:23;;;;;;;50.63;27.90;;;11.30;99.90;;;;;;5049747;28;20452;-49
2022/04/26 05:21:49;;;;;;;51.37;27.77;;;11.30;99.90;;;;;;5056435;28;20426;-49
2022/04/26 05:26:58;;;;;;;50.28;27.98;;;11.50;99.90;;;;;;5070539;28;20726;-50
2022/04/26 05:29:24;;;;;;;51.95;27.95;;;11.60;99.90;;;;;;5069734;28;20432;-50
2022/04/26 05:31:50;;;;;;;48.53;26.97;;;11.60;99.90;;;;;;5075920;28;20378;-50
2022/04/26 05:34:15;;;;;;;47.78;27.50;;;11.50;99.90;;;;;;5072026;28;20902;-50
2022/04/26 05:36:41;;;;;;;48.23;27.03;;;11.60;99.90;;;;;;5089462;28;20472;-51
2022/04/26 05:39:07;;;;;;;47.03;26.55;;;11.70;99.90;;;;;;5073751;28;20443;-49
2022/04/26 05:41:32;;;;;;;46.70;25.83;;;11.70;99.90;;;;;;5071492;28;20414;-49
2022/04/26 05:43:58;;;;;;;45.33;26.20;;;11.70;99.90;;;;;;5082738;28;20796;-49
2022/04/26 05:46:24;;;;;;;47.97;27.33;;;11.70;99.90;;;;;;5073386;28;20457;-50
2022/04/26 05:48:49;;;;;;;38.33;21.37;;;11.80;99.90;;;;;;5068929;28;20391;-49
2022/04/26 05:51:15;;;;;;;45.60;24.00;;;11.80;99.90;;;;;;5051427;28;20812;-49
2022/04/26 05:53:41;;;;;;;46.23;24.93;;;11.70;99.90;;;;;;5070701;28;20434;-49
2022/04/26 05:56:08;;;;;;;40.67;23.05;;;11.80;99.90;;;;;;5074945;28;20699;-49
2022/04/26 05:58:34;;;;;;;47.72;23.88;;;11.70;99.90;;;;;;5055973;28;20817;-49
2022/04/26 06:01:00;;;;;;;39.65;24.85;;;11.60;99.90;;;;;;5069608;28;20393;-49
2022/04/26 06:03:26;;;;;;;37.45;22.38;;;11.70;99.90;;;;;;5071004;28;20484;-49
2022/04/26 06:05:55;;;;;;;33.73;20.20;;;11.80;99.90;;;;;;5078901;28;20400;-49
2022/04/26 06:08:22;;;;;;;37.83;22.30;;;11.80;99.90;;;;;;5077962;28;20386;-49
2022/04/26 06:10:47;;;;;;;36.85;22.20;;;11.80;99.90;;;;;;5076564;28;20423;-49
2022/04/26 06:13:13;;;;;;;35.47;21.50;;;11.80;99.90;;;;;;5070204;28;20407;-49
2022/04/26 06:15:39;;;;;;;38.90;23.10;;;11.80;99.90;;;;;;5085150;28;20813;-49
2022/04/26 06:18:05;;;;;;;40.60;23.30;;;11.80;99.90;;;;;;5088839;28;20378;-49
2022/04/26 06:20:30;;;;;;;40.15;23.20;;;11.70;99.90;;;;;;5069399;28;20429;-48
2022/04/26 06:22:56;;;;;;;41.20;24.10;;;11.70;99.90;;;;;;5063270;28;20739;-50
2022/04/26 06:25:22;;;;;;;42.05;22.70;;;11.60;99.90;;;;;;5048724;28;20425;-49
2022/04/26 06:27:48;;;;;;;40.70;23.33;;;11.60;99.90;;;;;;5039040;28;20913;-49
2022/04/26 06:30:15;;;;;;;43.65;23.23;;;11.50;99.90;;;;;;5056072;28;20902;-49
2022/04/26 06:32:44;;;;;;;38.92;22.70;;;11.40;99.90;;;;;;5049264;28;20404;-50
2022/04/26 06:35:10;;;;;;;39.42;23.25;;;11.40;99.90;;;;;;5051083;28;20390;-49
2022/04/26 06:37:37;;;;;;;40.33;22.05;;;11.50;99.90;;;;;;5057171;28;20396;-49
2022/04/26 06:40:06;;;;;;;38.22;22.33;;;11.60;99.90;;;;;;5058841;28;20420;-49
2022/04/26 06:42:32;;;;;;;43.42;23.73;;;11.70;99.90;;;;;;5048729;28;20377;-49
2022/04/26 06:44:57;;;;;;;39.07;23.13;;;11.80;99.90;;;;;;5048657;28;20389;-49
2022/04/26 06:47:23;;;;;;;38.00;21.90;;;11.80;99.90;;;;;;5068307;28;20471;-49
2022/04/26 06:49:49;;;;;;;43.17;24.40;;;11.90;99.90;;;;;;5068311;28;20396;-49
2022/04/26 06:52:15;;;;;;;38.67;22.98;;;11.90;99.90;;;;;;5050596;28;20760;-49
2022/04/26 06:54:41;;;;;;;39.93;23.80;;;11.80;99.90;;;;;;5069206;28;20389;-49
2022/04/26 06:57:06;;;;;;;33.88;20.35;;;11.90;99.90;;;;;;5067900;28;20442;-49
2022/04/26 06:59:32;;;;;;;32.13;19.67;;;11.90;99.90;;;;;;5068901;28;20454;-49
2022/04/26 07:01:57;;;;;;;32.47;20.58;;;11.90;99.90;;;;;;5066823;28;20399;-49
2022/04/26 07:04:23;;;;;;;31.13;18.33;;;12.00;99.90;;;;;;5064881;28;20401;-49
2022/04/26 07:06:49;;;;;;;27.35;17.10;;;12.00;99.90;;;;;;5046855;28;20397;-49
2022/04/26 07:09:15;;;;;;;27.13;17.10;;;12.00;99.90;;;;;;5052867;28;20416;-49
2022/04/26 07:11:45;;;;;;;24.52;15.75;;;12.00;99.90;;;;;;5052418;28;20392;-49
2022/04/26 07:14:11;;;;;;;26.05;16.10;;;12.00;99.90;;;;;;5044034;28;20722;-49
2022/04/26 07:16:37;;;;;;;24.50;15.25;;;11.70;99.90;;;;;;5072489;28;20521;-49
2022/04/26 07:19:03;;;;;;;28.83;16.70;;;11.80;99.90;;;;;;5057431;28;20483;-49
2022/04/26 07:21:29;;;;;;;25.42;15.73;;;11.80;99.90;;;;;;5057000;28;20415;-49
2022/04/26 07:23:55;;;;;;;23.57;14.90;;;11.90;99.90;;;;;;5071943;28;20396;-48
2022/04/26 07:26:20;;;;;;;24.35;15.15;;;12.00;99.90;;;;;;5077299;28;20429;-49
2022/04/26 07:28:46;;;;;;;22.67;14.10;;;12.10;99.90;;;;;;5072354;28;20394;-52
2022/04/26 07:31:12;;;;;;;17.42;11.32;;;12.30;99.90;;;;;;5091716;28;20386;-49
2022/04/26 07:36:22;;;;;;;17.77;11.53;;;12.10;99.90;;;;;;5087508;28;20811;-50
2022/04/26 07:38:49;;;;;;;16.70;10.93;;;12.20;99.90;;;;;;5082339;28;20411;-49
2022/04/26 07:41:15;;;;;;;17.75;11.25;;;12.00;99.90;;;;;;5087183;28;20384;-49
2022/04/26 07:43:41;;;;;;;17.33;11.38;;;11.90;99.90;;;;;;5092005;28;20375;-49
2022/04/26 07:46:07;;;;;;;18.10;11.60;;;12.00;99.90;;;;;;5086148;28;21179;-49
2022/04/26 07:48:36;;;;;;;17.43;11.23;;;12.20;99.90;;;;;;5072198;28;20386;-49
2022/04/26 07:51:03;;;;;;;16.75;11.35;;;12.80;99.90;;;;;;5073339;28;20893;-49
2022/04/26 07:53:29;;;;;;;16.17;10.70;;;13.20;99.90;;;;;;5074819;28;20477;-49
2022/04/26 07:55:55;;;;;;;18.40;10.80;;;13.30;99.90;;;;;;5087500;28;20453;-49
2022/04/26 07:58:20;;;;;;;16.40;9.80;;;13.70;99.90;;;;;;5088499;28;20776;-49
2022/04/26 08:00:46;;;;;;;17.20;10.52;;;14.00;99.90;;;;;;5072664;28;20478;-52
2022/04/26 08:03:13;;;;;;;14.13;9.57;;;14.40;99.90;;;;;;5082773;28;20400;-49
2022/04/26 08:05:39;;;;;;;16.88;11.73;;;14.30;99.90;;;;;;5071402;28;20388;-49
2022/04/26 08:08:05;;;;;;;16.00;10.10;;;14.20;99.90;;;;;;5070303;28;20395;-49
2022/04/26 08:10:30;;;;;;;18.47;11.73;;;14.50;99.90;;;;;;5071736;28;20380;-49
2022/04/26 08:12:56;;;;;;;16.98;11.57;;;14.40;99.90;;;;;;5070571;28;20379;-49
2022/04/26 08:15:22;;;;;;;19.97;12.40;;;13.90;99.90;;;;;;5091003;28;20449;-51
2022/04/26 08:17:48;;;;;;;18.80;12.18;;;13.70;99.90;;;;;;5090659;28;20370;-52
2022/04/26 08:20:14;;;;;;;18.02;11.50;;;13.70;99.90;;;;;;5090755;28;20422;-49
2022/04/26 08:22:40;;;;;;;18.13;11.73;;;13.30;99.90;;;;;;5090984;28;20964;-49
2022/04/26 08:27:50;;;;;;;16.83;10.50;;;13.70;99.90;;;;;;5090247;28;20374;-49
2022/04/26 08:30:16;;;;;;;17.05;11.23;;;13.40;99.90;;;;;;5091152;28;20378;-49
2022/04/26 08:32:48;;;;;;;18.27;11.85;;;13.50;99.90;;;;;;5090637;28;20866;-49
2022/04/26 08:35:17;;;;;;;15.00;10.00;;;13.30;99.90;;;;;;5090746;28;20435;-50
2022/04/26 08:37:43;;;;;;;19.02;11.20;;;13.20;99.90;;;;;;5072545;28;20465;-49
2022/04/26 08:40:09;;;;;;;18.02;11.40;;;12.80;99.90;;;;;;5090123;28;20474;-49
2022/04/26 08:42:37;;;;;;;15.40;9.98;;;12.90;99.90;;;;;;5091071;28;20433;-49
2022/04/26 08:45:11;;;;;;;17.42;10.80;;;13.00;99.90;;;;;;5090091;28;20846;-49
2022/04/26 08:53:08;;;;;;;15.48;9.30;;;14.60;99.90;;;;;;5089650;28;20392;-49
2022/04/26 08:55:42;;;;;;;13.88;9.43;;;14.30;99.90;;;;;;5090916;28;20386;-49
2022/04/26 08:58:10;;;;;;;14.90;9.63;;;14.30;99.90;;;;;;5089585;28;20969;-50
2022/04/26 09:00:37;;;;;;;16.60;9.43;;;14.50;99.90;;;;;;5072439;28;20401;-49
2022/04/26 09:03:05;;;;;;;14.63;9.82;;;14.70;99.90;;;;;;5089640;28;20401;-49
2022/04/26 09:05:31;;;;;;;16.38;10.50;;;14.90;99.90;;;;;;5090583;28;20382;-49
2022/04/26 09:07:58;;;;;;;16.90;10.35;;;14.40;99.90;;;;;;5071557;28;20412;-49
2022/04/26 09:10:25;;;;;;;17.33;9.90;;;13.50;99.90;;;;;;5090404;28;20477;-49
2022/04/26 09:13:14;;;;;;;17.00;10.02;;;13.10;99.90;;;;;;5089506;28;20384;-49
2022/04/26 09:15:54;;;;;;;18.80;9.90;;;12.90;99.90;;;;;;5070303;28;20392;-49
2022/04/26 09:18:30;;;;;;;14.77;9.73;;;12.70;99.90;;;;;;5070265;28;20466;-51
2022/04/26 09:21:07;;;;;;;16.30;9.57;;;13.60;99.90;;;;;;5069678;28;20694;-49
2022/04/26 09:23:33;;;;;;;14.05;8.40;;;14.20;99.90;;;;;;5069634;28;20420;-49
2022/04/26 09:26:08;;;;;;;16.42;9.50;;;15.10;99.90;;;;;;5069347;28;20448;-49
2022/04/26 09:28:39;;;;;;;15.48;9.52;;;16.10;99.90;;;;;;5069574;28;20565;-50
2022/04/26 09:31:21;;;;;;;13.52;8.50;;;17.50;99.90;;;;;;5068563;28;20765;-49
2022/04/26 09:33:51;;;;;;;13.40;8.50;;;18.20;99.90;;;;;;5069405;28;20448;-52
2022/04/26 09:36:18;;;;;;;14.75;9.10;;;18.80;99.90;;;;;;5069945;28;20372;-49
2022/04/26 09:38:56;;;;;;;13.32;8.73;;;20.80;99.90;;;;;;5069390;28;20402;-49
2022/04/26 09:41:23;;;;;;;12.20;8.88;;;20.60;98.20;;;;;;5069768;28;20884;-50
2022/04/26 09:44:29;;;;;;;13.35;9.30;;;20.10;99.30;;;;;;5068838;28;20541;-52
2022/04/26 09:46:55;;;;;;;12.70;8.98;;;19.20;98.20;;;;;;5039677;28;20441;-49
2022/04/26 09:49:23;;;;;;;14.35;8.82;;;17.30;99.90;;;;;;5051947;28;20434;-49
2022/04/26 09:51:55;;;;;;;14.43;8.57;;;16.20;99.90;;;;;;5069358;28;20441;-53
2022/04/26 09:54:22;;;;;;;14.05;8.38;;;15.60;99.90;;;;;;5069285;28;20371;-50
2022/04/26 09:56:49;;;;;;;12.77;8.27;;;16.20;99.90;;;;;;5069532;28;20699;-53
2022/04/26 09:59:23;;;;;;;14.98;8.57;;;16.90;99.90;;;;;;5069563;28;20411;-50
2022/04/26 10:01:53;;;;;;;12.80;8.48;;;17.30;99.90;;;;;;5069227;28;20556;-53
2022/04/26 10:04:21;;;;;;;14.20;8.40;;;19.00;99.90;;;;;;5069651;28;20426;-50
2022/04/26 10:06:50;;;;;;;13.25;7.93;;;18.40;98.80;;;;;;5069480;28;20374;-52
2022/04/26 10:09:17;;;;;;;13.20;8.73;;;17.40;99.60;;;;;;5069488;28;20918;-50
2022/04/26 10:11:43;;;;;;;12.75;8.48;;;17.30;99.90;;;;;;5069526;28;20382;-50
2022/04/26 10:14:10;;;;;;;12.15;8.30;;;17.40;99.90;;;;;;5060371;28;20390;-50
2022/04/26 10:16:38;;;;;;;13.18;8.27;;;17.10;99.70;;;;;;5071780;28;20713;-50
2022/04/26 10:19:07;;;;;;;13.45;8.82;;;16.70;99.90;;;;;;5070751;28;20456;-50
2022/04/26 10:21:38;;;;;;;12.07;6.60;;;16.80;99.90;;;;;;5089298;28;20425;-50
2022/04/26 10:24:19;;;;;;;11.60;7.00;;;17.00;97.60;;;;;;5088834;28;20878;-50
2022/04/26 10:26:45;;;;;;;14.07;7.35;;;17.60;97.10;;;;;;5089407;28;20382;-50
2022/04/26 10:29:15;;;;;;;11.90;6.90;;;18.10;96.40;;;;;;5088903;28;20382;-50
2022/04/26 10:31:42;;;;;;;11.70;7.55;;;18.10;96.00;;;;;;5089630;28;20469;-50
2022/04/26 10:34:24;;;;;;;12.65;7.93;;;17.90;95.30;;;;;;5088921;28;20379;-50
2022/04/26 10:37:01;;;;;;;14.98;8.82;;;17.40;97.80;;;;;;5088910;28;20943;-53
2022/04/26 10:39:38;;;;;;;13.52;7.70;;;17.30;97.40;;;;;;5089081;28;20875;-50
2022/04/26 10:42:16;;;;;;;13.00;7.80;;;17.40;97.70;;;;;;5088689;28;20420;-50
2022/04/26 10:44:48;;;;;;;12.52;7.90;;;17.30;98.10;;;;;;5093228;28;20434;-50
2022/04/26 10:47:20;;;;;;;13.73;8.70;;;17.40;97.30;;;;;;5092609;28;20382;-50
2022/04/26 10:49:47;;;;;;;12.77;8.30;;;17.20;97.70;;;;;;5093170;28;20459;-49
2022/04/26 10:52:13;;;;;;;15.23;9.10;;;16.50;98.50;;;;;;5092362;28;20806;-50
2022/04/26 10:55:07;;;;;;;15.43;8.15;;;16.70;99.90;;;;;;5093186;28;20477;-50
2022/04/26 10:57:41;;;;;;;14.73;8.23;;;17.30;98.50;;;;;;5092951;28;20390;-49
2022/04/26 11:00:12;;;;;;;12.30;8.10;;;17.50;97.90;;;;;;5092257;28;20401;-49
2022/04/26 11:02:42;;;;;;;12.20;7.35;;;17.30;98.90;;;;;;5093244;28;20474;-50
2022/04/26 11:05:12;;;;;;;12.45;7.82;;;15.50;99.90;;;;;;5092133;28;20531;-49
2022/04/26 11:07:41;;;;;;;14.30;8.60;;;14.00;99.90;;;;;;5092906;28;20539;-49
2022/04/26 11:10:08;;;;;;;13.50;7.40;;;13.50;99.90;;;;;;5091891;28;20378;-49
2022/04/26 11:12:37;;;;;;;12.75;8.18;;;13.30;99.90;;;;;;5092771;28;20374;-49
2022/04/26 11:15:05;;;;;;;16.50;8.63;;;13.30;99.90;;;;;;5057021;28;20384;-49
2022/04/26 11:17:30;;;;;;;12.97;8.87;;;13.30;99.90;;;;;;5054551;28;20380;-49
2022/04/26 11:19:59;;;;;;;13.15;8.25;;;13.40;99.90;;;;;;5071798;28;20477;-49
2022/04/26 11:22:26;;;;;;;12.85;7.30;;;13.20;99.90;;;;;;5072073;28;20423;-49
2022/04/26 11:30:52;;;;;;;10.60;6.38;;;13.70;99.90;;;;;;5027308;28;20745;-49
2022/04/26 11:33:22;;;;;;;10.20;5.80;;;13.90;99.90;;;;;;5072172;28;20459;-49
2022/04/26 11:36:08;;;;;;;12.45;5.97;;;14.10;99.90;;;;;;5072084;28;20471;-50
2022/04/26 11:38:33;;;;;;;11.63;6.30;;;14.20;99.90;;;;;;5072072;28;20393;-49
2022/04/26 11:41:03;;;;;;;9.50;5.47;;;14.00;99.90;;;;;;5071028;28;20372;-49
2022/04/26 11:43:36;;;;;;;10.23;5.53;;;14.10;99.90;;;;;;5072013;28;20387;-49
2022/04/26 11:46:03;;;;;;;9.63;5.70;;;14.00;99.90;;;;;;5070650;28;20865;-50
2022/04/26 11:48:32;;;;;;;10.70;6.10;;;14.30;99.90;;;;;;5071653;28;20432;-50
2022/04/26 11:50:59;;;;;;;9.95;6.00;;;13.70;99.90;;;;;;5070846;28;20445;-49
2022/04/26 11:53:30;;;;;;;11.60;6.23;;;14.60;99.90;;;;;;5071787;28;20521;-49
2022/04/26 11:56:00;;;;;;;11.13;6.15;;;14.70;99.90;;;;;;5070019;28;20388;-49
2022/04/26 11:58:36;;;;;;;10.37;5.73;;;14.90;99.90;;;;;;5071639;28;20416;-49
2022/04/26 12:01:10;;;;;;;10.00;6.20;;;15.40;99.90;;;;;;5071073;28;20414;-49
2022/04/26 12:03:49;;;;;;;9.93;6.07;;;15.70;99.90;;;;;;5071487;28;20585;-50
2022/04/26 12:06:35;;;;;;;12.80;7.20;;;16.00;99.90;;;;;;5052862;28;20431;-51
2022/04/26 12:09:05;;;;;;;10.50;6.32;;;16.00;99.90;;;;;;5070724;28;20478;-51
2022/04/26 12:11:37;;;;;;;9.77;5.78;;;16.00;99.90;;;;;;5071117;28;20772;-50
2022/04/26 12:14:07;;;;;;;9.15;5.47;;;15.80;99.90;;;;;;5079120;28;20505;-51
2022/04/26 12:16:49;;;;;;;9.80;5.40;;;15.50;99.90;;;;;;5091749;28;20415;-50
2022/04/26 12:19:16;;;;;;;10.30;6.00;;;14.80;99.90;;;;;;5090844;28;20410;-50
2022/04/26 12:21:46;;;;;;;10.73;6.10;;;14.70;99.90;;;;;;5091131;28;20487;-50
2022/04/26 12:24:22;;;;;;;11.70;6.65;;;14.60;99.90;;;;;;5090652;28;20374;-50
2022/04/26 12:26:59;;;;;;;11.32;5.60;;;14.60;99.90;;;;;;5082405;28;20406;-50
2022/04/26 12:29:35;;;;;;;10.60;4.20;;;13.80;99.90;;;;;;5080228;28;20412;-50
2022/04/26 12:32:05;;;;;;;8.90;3.80;;;13.10;99.90;;;;;;5089553;28;20374;-50
2022/04/26 12:34:31;;;;;;;7.00;3.30;;;13.10;99.90;;;;;;5085833;28;20379;-48
2022/04/26 12:37:03;;;;;;;8.32;4.00;;;13.50;99.90;;;;;;5087278;28;20439;-47
2022/04/26 12:39:45;;;;;;;8.05;3.90;;;13.40;99.90;;;;;;5080992;28;20414;-50
2022/04/26 12:42:27;;;;;;;8.50;3.53;;;13.20;99.90;;;;;;5079920;28;20398;-48
2022/04/26 12:44:58;;;;;;;6.97;3.10;;;13.10;99.90;;;;;;5082545;28;20455;-51
2022/04/26 12:53:04;;;;;;;11.20;2.10;;;12.80;99.90;;;;;;5079559;28;20450;-49
2022/04/26 12:55:35;;;;;;;6.45;2.50;;;12.80;99.90;;;;;;5079429;28;20392;-48
2022/04/26 12:58:11;;;;;;;7.38;2.42;;;12.80;99.90;;;;;;5079510;28;20412;-49
2022/04/26 13:00:40;;;;;;;5.90;2.20;;;13.10;99.90;;;;;;5047320;28;20421;-49
2022/04/26 13:03:07;;;;;;;5.70;1.80;;;13.80;99.90;;;;;;5079843;28;20472;-49
2022/04/26 13:05:47;;;;;;;6.07;1.50;;;14.20;99.90;;;;;;5080039;28;20860;-48
2022/04/26 13:08:15;;;;;;;5.18;1.60;;;13.90;99.90;;;;;;5078650;28;20374;-49
2022/04/26 13:10:41;;;;;;;5.80;1.90;;;13.90;99.90;;;;;;5070336;28;20390;-49
2022/04/26 13:13:09;;;;;;;5.10;1.70;;;13.60;99.90;;;;;;5070319;28;20446;-49
2022/04/26 13:15:35;;;;;;;5.90;2.20;;;14.20;99.90;;;;;;5089990;28;20415;-48
2022/04/26 13:18:03;;;;;;;6.30;2.40;;;14.50;99.90;;;;;;5089551;28;20374;-49
2022/04/26 13:20:29;;;;;;;5.32;2.10;;;14.90;99.90;;;;;;5090036;28;20421;-50
2022/04/26 13:22:55;;;;;;;7.10;2.05;;;14.40;99.90;;;;;;5089576;28;20402;-52
2022/04/26 13:25:21;;;;;;;5.50;2.00;;;14.40;99.90;;;;;;5089497;28;20366;-51
2022/04/26 13:27:48;;;;;;;5.50;1.70;;;14.10;99.90;;;;;;5090129;28;20381;-50
2022/04/26 13:30:16;;;;;;;5.47;1.90;;;13.80;99.90;;;;;;5089180;28;20382;-50
2022/04/26 13:32:42;;;;;;;6.20;1.73;;;14.20;99.90;;;;;;5090408;28;20465;-50
2022/04/26 13:35:08;;;;;;;5.82;2.15;;;14.50;99.90;;;;;;5087664;28;20421;-49
2022/04/26 13:37:35;;;;;;;6.13;2.30;;;14.80;99.90;;;;;;5082266;28;20855;-50
2022/04/26 13:40:02;;;;;;;5.30;1.80;;;14.90;99.90;;;;;;5083323;28;20406;-50
2022/04/26 13:42:30;;;;;;;5.18;1.60;;;14.60;99.90;;;;;;5081180;28;20436;-50
2022/04/26 13:44:58;;;;;;;5.00;1.60;;;14.50;99.90;;;;;;5079321;28;20386;-50
2022/04/26 13:47:25;;;;;;;5.70;1.70;;;14.80;99.90;;;;;;5081233;28;20382;-50
2022/04/26 13:49:53;;;;;;;6.55;2.15;;;14.90;99.90;;;;;;5077673;28;20403;-50
2022/04/26 13:52:20;;;;;;;7.20;2.20;;;14.60;99.90;;;;;;5073240;28;20476;-50
2022/04/26 13:54:46;;;;;;;6.88;2.13;;;14.90;99.90;;;;;;5069621;28;20384;-49
2022/04/26 13:57:12;;;;;;;6.22;2.50;;;15.20;99.90;;;;;;5077874;28;20459;-50
2022/04/26 13:59:38;;;;;;;6.93;3.17;;;15.10;99.90;;;;;;5081351;28;20433;-50
2022/04/26 14:02:05;;;;;;;7.32;2.33;;;15.00;99.90;;;;;;5081098;28;20395;-50
2022/04/26 14:04:32;;;;;;;6.22;2.10;;;15.20;99.90;;;;;;5080190;28;20381;-50
2022/04/26 14:06:58;;;;;;;6.20;2.40;;;14.60;99.90;;;;;;5063508;28;20709;-49
2022/04/26 14:09:23;;;;;;;7.75;2.90;;;14.80;99.90;;;;;;5083721;28;20385;-50
2022/04/26 14:11:51;;;;;;;8.03;3.70;;;14.80;99.90;;;;;;5082768;28;20413;-49
2022/04/26 14:22:32;;;;;;;6.30;2.70;;;14.30;99.90;;;;;;5072803;28;20409;-50
2022/04/26 14:24:59;;;;;;;7.47;2.87;;;14.00;99.90;;;;;;5064370;28;20387;-50
2022/04/26 14:27:27;;;;;;;7.10;2.53;;;13.90;99.90;;;;;;5066064;28;20427;-49
2022/04/26 14:29:53;;;;;;;7.40;3.10;;;13.90;99.90;;;;;;5068565;28;20375;-53
2022/04/26 14:32:19;;;;;;;6.82;2.60;;;13.80;99.90;;;;;;5064864;28;20865;-50
2022/04/26 14:34:46;;;;;;;8.32;2.70;;;13.80;99.90;;;;;;5063549;28;20388;-50
2022/04/26 14:37:12;;;;;;;7.47;3.00;;;14.10;99.90;;;;;;5066159;28;20399;-50
2022/04/26 14:39:38;;;;;;;6.22;2.60;;;14.10;99.90;;;;;;5068983;28;20953;-52
2022/04/26 14:42:05;;;;;;;6.72;2.72;;;14.30;99.90;;;;;;5066424;28;20385;-49
2022/04/26 14:44:31;;;;;;;7.10;3.10;;;14.60;99.90;;;;;;5059988;28;20487;-50
2022/04/26 14:46:57;;;;;;;6.53;2.67;;;14.70;99.90;;;;;;5058597;28;20482;-52
2022/04/26 14:49:23;;;;;;;5.90;2.20;;;14.60;99.90;;;;;;5067878;28;20395;-51
2022/04/26 14:51:49;;;;;;;5.37;2.10;;;14.40;99.90;;;;;;5068094;28;20407;-50
2022/04/26 14:54:14;;;;;;;6.30;2.50;;;14.40;99.90;;;;;;5070472;28;20987;-50
2022/04/26 14:56:40;;;;;;;6.10;2.50;;;14.50;99.90;;;;;;5072477;28;20441;-51
2022/04/26 14:59:07;;;;;;;6.50;2.60;;;14.60;99.90;;;;;;5063038;28;20432;-50
2022/04/26 15:01:33;;;;;;;7.60;2.80;;;14.70;99.90;;;;;;5049769;28;20408;-50
2022/04/26 15:04:00;;;;;;;6.13;2.67;;;14.60;99.90;;;;;;5069609;28;20406;-52
2022/04/26 15:06:26;;;;;;;7.50;2.97;;;14.30;99.90;;;;;;5075953;28;20398;-50
2022/04/26 15:11:36;;;;;;;7.60;3.30;;;13.90;99.90;;;;;;5066181;28;20379;-50
2022/04/26 15:16:49;;;;;;;7.85;3.50;;;13.80;99.90;;;;;;5062847;28;21072;-50
2022/04/26 15:19:15;;;;;;;7.20;3.80;;;13.80;99.90;;;;;;5061588;28;21426;-50
2022/04/26 15:21:43;;;;;;;7.70;3.58;;;13.70;99.90;;;;;;5061934;28;20409;-50
2022/04/26 15:24:10;;;;;;;7.07;3.45;;;13.60;99.90;;;;;;5060320;28;20401;-50
2022/04/26 15:26:36;;;;;;;7.25;3.85;;;13.40;99.90;;;;;;5061554;28;20399;-50
2022/04/26 15:29:04;;;;;;;8.30;3.60;;;13.30;99.90;;;;;;5044574;28;20412;-49
2022/04/26 15:31:30;;;;;;;9.00;3.90;;;13.30;99.90;;;;;;5059571;28;21103;-50
2022/04/26 15:33:56;;;;;;;7.37;3.87;;;13.40;99.90;;;;;;5062534;28;20383;-52
2022/04/26 15:36:22;;;;;;;9.93;4.07;;;13.70;99.90;;;;;;5061246;28;20390;-50
2022/04/26 15:38:47;;;;;;;8.30;4.50;;;13.90;99.90;;;;;;5062119;28;20399;-49
2022/04/26 15:41:14;;;;;;;8.35;4.03;;;13.60;99.90;;;;;;5061309;28;20384;-49
2022/04/26 15:43:42;;;;;;;8.60;4.30;;;13.60;99.90;;;;;;5059967;28;20461;-50
2022/04/26 15:46:09;;;;;;;8.48;3.78;;;13.70;99.90;;;;;;5065369;28;20428;-50
2022/04/26 15:48:39;;;;;;;8.57;4.07;;;13.30;99.90;;;;;;5071407;28;20434;-51
2022/04/26 15:51:06;;;;;;;8.52;4.40;;;13.00;99.90;;;;;;5070516;28;20404;-50
2022/04/26 15:53:32;;;;;;;7.57;3.70;;;13.00;99.90;;;;;;5071469;28;20382;-50
2022/04/26 15:55:58;;;;;;;7.70;3.50;;;12.90;99.90;;;;;;5066388;28;20439;-52
2022/04/26 15:58:23;;;;;;;7.50;2.80;;;12.80;99.90;;;;;;5064824;28;20408;-50
2022/04/26 16:00:51;;;;;;;7.00;2.30;;;12.70;99.90;;;;;;5064879;28;20419;-51
2022/04/26 16:03:17;;;;;;;6.57;2.20;;;12.50;99.90;;;;;;5070496;28;20675;-50
2022/04/26 16:05:44;;;;;;;6.57;2.80;;;12.40;99.90;;;;;;5065204;28;20965;-50
2022/04/26 16:08:10;;;;;;;6.82;3.20;;;12.10;99.90;;;;;;5063287;28;20452;-50
2022/04/26 16:21:34;;;;;;;5.60;2.10;;;11.30;99.90;;;;;;5069966;28;20544;-50
2022/04/26 16:24:00;;;;;;;6.30;2.50;;;11.20;99.90;;;;;;5061402;28;20432;-53
2022/04/26 16:26:27;;;;;;;7.13;2.23;;;11.20;99.90;;;;;;5062271;28;20400;-51
2022/04/26 16:28:54;;;;;;;7.20;2.70;;;11.20;99.90;;;;;;5061003;28;20386;-51
2022/04/26 16:31:30;;;;;;;5.72;2.40;;;11.20;99.90;;;;;;5057149;28;20396;-50
2022/04/26 16:33:57;;;;;;;5.78;2.40;;;11.10;99.90;;;;;;5062297;28;20401;-50
2022/04/26 16:36:24;;;;;;;6.10;2.60;;;11.10;99.90;;;;;;5064272;28;20894;-50
2022/04/26 16:38:50;;;;;;;5.10;1.90;;;11.40;99.90;;;;;;5062752;28;20486;-50
2022/04/26 16:41:16;;;;;;;5.13;2.03;;;11.40;99.90;;;;;;5059715;28;20728;-50
2022/04/26 16:43:43;;;;;;;5.20;2.05;;;11.30;99.90;;;;;;5068907;28;20410;-50
2022/04/26 16:46:11;;;;;;;5.55;2.03;;;11.50;99.90;;;;;;5059275;28;20415;-50
2022/04/26 16:48:36;;;;;;;8.50;3.50;;;11.70;99.90;;;;;;5052318;28;20861;-50
2022/04/26 16:51:02;;;;;;;5.90;2.40;;;11.80;99.90;;;;;;5069995;28;20562;-52
2022/04/26 16:53:29;;;;;;;5.47;1.93;;;11.70;99.90;;;;;;5070288;28;20384;-50
2022/04/26 16:55:55;;;;;;;5.13;2.30;;;11.60;99.90;;;;;;5071808;28;20407;-50
2022/04/26 16:58:21;;;;;;;6.40;2.40;;;11.60;99.90;;;;;;5061946;28;20399;-51
2022/04/26 17:00:48;;;;;;;5.80;2.40;;;11.70;99.90;;;;;;5058946;28;20417;-50
2022/04/26 17:03:18;;;;;;;5.50;1.88;;;11.90;99.90;;;;;;5049319;28;20405;-50
2022/04/26 17:05:46;;;;;;;5.57;2.20;;;11.80;99.90;;;;;;5050202;28;20422;-51
2022/04/26 17:08:16;;;;;;;6.30;2.50;;;11.90;99.90;;;;;;5049499;28;20398;-50